Karditsa, Greece
Current Conditions -  °F | °C
As of 12:50 PM on Monday 26 Jan 2015 (Local Time) from LGLR Reporting Station
Overcast Overcast  
Wind Chill: 50°   Ceiling: 8000
Heat Index: 50°   Visibility: 6mi
Dew Point: 39°   Wind: 0mph
Humidity: 66%   Direction: NA
Pressure: 30.03"   Gusts: NA
Location:  39.37°N, 21.92°E
Report Text: LGLR 260950Z 00000KT 9999 SCT035 OVC080 10/04 Q1017 BLU
Loading
Personal Weather Stations






























Interactive Weather Map New forecast layout! Learn more

10-Day Weather Forecast

Advertisements
Track Severe Weather on mobile